Home > Products > Valid Products > TAF

000
FTUS45 KTFX 291415 AAB
TAFLWT
TAF AMD
KLWT 291415Z 2914/3012 14005KT 2SM FU BKN030
     FM292000 15011G19KT 4SM FU SCT080 OVC120
     FM300300 20010KT 6SM FU SCT100 BKN200=



000
FTUS45 KTFX 291414 AAA
TAFCTB
TAF AMD
KCTB 291414Z 2914/3012 21010KT 2SM FU BKN025
     FM291800 18018G25KT 5SM FU SCT050 BKN150
     FM292300 24020G30KT P6SM OVC110
     FM300400 27011KT 4SM FU FEW080 SCT150=



000
FTUS45 KTFX 291414 AAB
TAFHVR
TAF AMD
KHVR 291414Z 2914/3012 VRB05KT 1 1/2SM FU OVC025
     FM291800 16010G20KT 5SM FU SCT050 BKN100
     FM292300 20015G25KT 4SM FU SCT100 BKN150
     FM300400 24010KT 4SM FU OVC150=



000
FTUS45 KTFX 291412 AAA
TAFGTF
TAF AMD
KGTF 291412Z 2914/3012 VRB05KT 3SM FU BKN030
     FM291900 17015G25KT 5SM FU SCT080 BKN150
     FM292200 23018G27KT P6SM SCT080 OVC150
     FM300200 22011KT 4SM FU BKN120=



000
FTUS45 KTFX 291410 AAA
TAFHLN
TAF AMD
KHLN 291410Z 2914/3012 VRB05KT 2SM FU BKN022
     FM291900 16010G20KT 5SM FU OVC150
     FM292200 24015G25KT P6SM OVC150
     FM300300 25010KT 4SM FU SCT080 OVC130=



000
FTUS45 KTFX 291317 AAA
TAFLWT
TAF AMD
KLWT 291317Z 2913/3012 14005KT 2SM FU SCT050 BKN150
     FM292000 15011G19KT 4SM FU SCT080 OVC120
     FM300300 20010KT 6SM FU SCT100 BKN200=



000
FTUS45 KTFX 291317 AAA
TAFLWT
TAF AMD
KLWT 291317Z 2913/3012 14005KT 2SM FU SCT050 BKN150
     FM292000 15011G19KT 4SM FU SCT080 OVC120
     FM300300 20010KT 6SM FU SCT100 BKN200=



000
FTUS45 KTFX 291316 AAA
TAFHVR
TAF AMD
KHVR 291316Z 2913/3012 VRB05KT 1 1/2SM FU BKN150
     FM291800 16010G20KT 5SM FU SCT050 BKN100
     FM292300 20015G25KT 4SM FU SCT100 BKN150
     FM300400 24010KT 4SM FU OVC150=



000
FTUS45 KTFX 291316 AAA
TAFHVR
TAF AMD
KHVR 291316Z 2913/3012 VRB05KT 1 1/2SM FU BKN150
     FM291800 16010G20KT 5SM FU SCT050 BKN100
     FM292300 20015G25KT 4SM FU SCT100 BKN150
     FM300400 24010KT 4SM FU OVC150=



000
FTUS45 KTFX 291131
TAFCTB
TAF
KCTB 291131Z 2912/3012 21010KT 5SM FU BKN035
     FM291600 18018G25KT 5SM FU SCT050 BKN150
     FM292300 24020G30KT P6SM OVC110
     FM300400 27011KT 4SM FU FEW080 SCT150=



000
FTUS45 KTFX 291131
TAFCTB
TAF
KCTB 291131Z 2912/3012 21010KT 5SM FU BKN035
     FM291600 18018G25KT 5SM FU SCT050 BKN150
     FM292300 24020G30KT P6SM OVC110
     FM300400 27011KT 4SM FU FEW080 SCT150=



000
FTUS45 KTFX 291131
TAFHVR
TAF
KHVR 291131Z 2912/3012 VRB05KT 2SM FU BKN050
     FM291500 16010G20KT 5SM FU SCT050 BKN100
     FM292300 20015G25KT 4SM FU SCT100 BKN150
     FM300400 24010KT 4SM FU OVC150=



000
FTUS45 KTFX 291131
TAFBZN
TAF
KBZN 291131Z 2912/3012 15005KT 3SM FU SCT035 BKN120
     FM292000 21015G25KT 6SM FU SCT070 BKN150
     FM300200 16013KT 4SM HZ BKN100=



000
FTUS45 KTFX 291131
TAFGTF
TAF
KGTF 291131Z 2912/3012 VRB05KT 5SM FU BKN150
     FM291900 17015G25KT 5SM FU SCT080 BKN150
     FM292200 23018G27KT P6SM SCT080 OVC150
     FM300200 22011KT 4SM FU BKN120=



000
FTUS45 KTFX 291131
TAFLWT
TAF
KLWT 291131Z 2912/3012 14005KT 5SM FU SCT050 BKN150
     FM292000 15011G19KT 4SM FU SCT080 OVC120
     FM300300 20010KT 6SM FU SCT100 BKN200=



000
FTUS45 KTFX 291131
TAFHLN
TAF
KHLN 291131Z 2912/3012 VRB05KT 2SM FU SCT050 BKN150
     FM291900 16010G20KT 5SM FU OVC150
     FM292200 24015G25KT P6SM OVC150
     FM300300 25010KT 4SM FU SCT080 OVC130=



000
FTUS45 KTFX 291131
TAFBZN
TAF
KBZN 291131Z 2912/3012 15005KT 3SM FU SCT035 BKN120
     FM292000 21015G25KT 6SM FU SCT070 BKN150
     FM300200 16013KT 4SM HZ BKN100=



000
FTUS45 KTFX 291131
TAFGTF
TAF
KGTF 291131Z 2912/3012 VRB05KT 5SM FU BKN150
     FM291900 17015G25KT 5SM FU SCT080 BKN150
     FM292200 23018G27KT P6SM SCT080 OVC150
     FM300200 22011KT 4SM FU BKN120=



000
FTUS45 KTFX 291131
TAFHVR
TAF
KHVR 291131Z 2912/3012 VRB05KT 2SM FU BKN050
     FM291500 16010G20KT 5SM FU SCT050 BKN100
     FM292300 20015G25KT 4SM FU SCT100 BKN150
     FM300400 24010KT 4SM FU OVC150=



000
FTUS45 KTFX 291131
TAFLWT
TAF
KLWT 291131Z 2912/3012 14005KT 5SM FU SCT050 BKN150
     FM292000 15011G19KT 4SM FU SCT080 OVC120
     FM300300 20010KT 6SM FU SCT100 BKN200=



000
FTUS45 KTFX 291131
TAFHLN
TAF
KHLN 291131Z 2912/3012 VRB05KT 2SM FU SCT050 BKN150
     FM291900 16010G20KT 5SM FU OVC150
     FM292200 24015G25KT P6SM OVC150
     FM300300 25010KT 4SM FU SCT080 OVC130=



000
FTUS45 KTFX 290533
TAFHLN
TAF
KHLN 290533Z 2906/3006 VRB05KT 3SM FU BKN045
     FM291900 16010G20KT 5SM FU OVC150
     FM292200 21020G30KT P6SM OVC150=



000
FTUS45 KTFX 290533
TAFCTB
TAF
KCTB 290533Z 2906/3006 27010KT 4SM FU BKN035
     FM291600 19020G30KT 5SM FU BKN150
     FM300200 27010G20KT P6SM OVC150=



000
FTUS45 KTFX 290533
TAFGTF
TAF
KGTF 290533Z 2906/3006 VRB05KT 5SM FU SCT060
     FM292100 16010G20KT 5SM FU OVC150
     FM292200 23020G30KT P6SM OVC150=



000
FTUS45 KTFX 290533
TAFHVR
TAF
KHVR 290533Z 2906/3006 VRB05KT 3SM FU BKN040
     FM291500 17010G20KT 5SM FU SCT050 BKN100=



000
FTUS45 KTFX 290533
TAFLWT
TAF
KLWT 290533Z 2906/3006 VRB05KT 6SM HZ SCT035
     FM291800 19010G20KT P6SM BKN150=



000
FTUS45 KTFX 290533
TAFBZN
TAF
KBZN 290533Z 2906/3006 15005KT 3SM FU SCT050 BKN150
     FM292100 21015G25KT P6SM SCT070 BKN250=



000
FTUS45 KTFX 290159 AAB
TAFCTB
TAF AMD
KCTB 290159Z 2902/2924 25022G30KT 4SM FU SCT040 OVC080
      TEMPO 2902/2904 25025G40KT
     FM290400 23012G20KT 3SM FU SCT040 BKN090
     FM291900 19021G29KT 5SM HZ BKN150=



000
FTUS45 KTFX 290155 AAB
TAFGTF
TAF AMD
KGTF 290155Z 2902/2924 21009KT 4SM FU SCT045 BKN060
      TEMPO 2902/2906 2SM FU BKN040
     FM290600 VRB06KT 5SM FU BKN060
     FM292100 16009G17KT 5SM FU OVC150
     FM292200 23010G18KT P6SM OVC150=



000
FTUS45 KTFX 290152 AAB
TAFHLN
TAF AMD
KHLN 290152Z 2902/2924 30012G20KT 2SM FU OVC035
     FM290400 27008G15KT 5SM FU BKN045
     FM291900 16009G17KT 5SM FU OVC150
     FM292200 21010G18KT P6SM OVC150=



000
FTUS45 KTFX 290152 AAB
TAFHLN
TAF AMD
KHLN 290152Z 2902/2924 30012G20KT 2SM FU OVC035
     FM290400 27008G15KT 5SM FU BKN045
     FM291900 16009G17KT 5SM FU OVC150
     FM292200 21010G18KT P6SM OVC150=



000
FTUS45 KTFX 290022 AAA
TAFHVR
TAF AMD
KHVR 290022Z 2900/2924 20008KT 5SM HZ SCT030 BKN070
     FM291500 17012KT 5SM HZ SCT050 BKN100=



000
FTUS45 KTFX 290022 AAA
TAFHVR
TAF AMD
KHVR 290022Z 2900/2924 20008KT 5SM HZ SCT030 BKN070
     FM291500 17012KT 5SM HZ SCT050 BKN100=



000
FTUS45 KTFX 290021 AAA
TAFHLN
TAF AMD
KHLN 290021Z 2900/2924 VRB06KT 5SM FU BKN060
     FM291900 16009G17KT 5SM FU OVC150
     FM292200 21010G18KT P6SM OVC150=



000
FTUS45 KTFX 290021 AAA
TAFHLN
TAF AMD
KHLN 290021Z 2900/2924 VRB06KT 5SM FU BKN060
     FM291900 16009G17KT 5SM FU OVC150
     FM292200 21010G18KT P6SM OVC150=



000
FTUS45 KTFX 290020 AAA
TAFGTF
TAF AMD
KGTF 290020Z 2900/2924 21009KT 4SM FU SCT045 BKN060
     FM290300 VRB06KT 5SM FU BKN060
     FM292100 16009G17KT 5SM FU OVC150
     FM292200 23010G18KT P6SM OVC150=



000
FTUS45 KTFX 290020 AAA
TAFGTF
TAF AMD
KGTF 290020Z 2900/2924 21009KT 4SM FU SCT045 BKN060
     FM290300 VRB06KT 5SM FU BKN060
     FM292100 16009G17KT 5SM FU OVC150
     FM292200 23010G18KT P6SM OVC150=



000
FTUS45 KTFX 290019 AAA
TAFCTB
TAF AMD
KCTB 290019Z 2900/2924 25022G30KT 2SM FU SCT040 BKN110
     FM290400 23012KT 3SM FU SCT040 BKN090
     FM291900 19021G29KT 5SM HZ BKN150=



000
FTUS45 KTFX 290019 AAA
TAFCTB
TAF AMD
KCTB 290019Z 2900/2924 25022G30KT 2SM FU SCT040 BKN110
     FM290400 23012KT 3SM FU SCT040 BKN090
     FM291900 19021G29KT 5SM HZ BKN150=



000
FTUS45 KTFX 282323
TAFCTB
TAF
KCTB 282323Z 2900/2924 25018KT 3SM FU SCT040 BKN110
     FM290300 23008KT 5SM HZ SCT040 BKN090
     FM291900 19021G29KT 5SM HZ BKN150=



000
FTUS45 KTFX 282323
TAFHLN
TAF
KHLN 282323Z 2900/2924 13012KT 5SM FU SCT035 BKN060
     FM290200 VRB06KT 5SM FU BKN060
     FM292100 16009G17KT 5SM FU OVC150
     FM292200 21010G18KT P6SM OVC150=



000
FTUS45 KTFX 282323
TAFGTF
TAF
KGTF 282323Z 2900/2924 22012KT 5SM FU SCT045 BKN060
     FM290300 VRB06KT 5SM FU BKN060
     FM292100 16009G17KT 5SM FU OVC150
     FM292200 23010G18KT P6SM OVC150=



000
FTUS45 KTFX 282323
TAFBZN
TAF
KBZN 282323Z 2900/2924 VRB05KT 6SM HZ SCT090
     FM290200 15006KT 5SM HZ SCT070 BKN150
     FM292100 21014G22KT P6SM SCT070 BKN250=



000
FTUS45 KTFX 282323
TAFHVR
TAF
KHVR 282323Z 2900/2924 22008KT 4SM HZ BKN030 OVC045
     FM291500 17012KT 5SM HZ SCT050 BKN100=



000
FTUS45 KTFX 282323
TAFLWT
TAF
KLWT 282323Z 2900/2924 04006KT P6SM SCT035
     FM290300 VRB05KT 6SM HZ SCT035 BKN090
     FM291800 19013G19KT P6SM BKN150=



000
FTUS45 KTFX 282323
TAFBZN
TAF
KBZN 282323Z 2900/2924 VRB05KT 6SM HZ SCT090
     FM290200 15006KT 5SM HZ SCT070 BKN150
     FM292100 21014G22KT P6SM SCT070 BKN250=



000
FTUS45 KTFX 282323
TAFGTF
TAF
KGTF 282323Z 2900/2924 22012KT 5SM FU SCT045 BKN060
     FM290300 VRB06KT 5SM FU BKN060
     FM292100 16009G17KT 5SM FU OVC150
     FM292200 23010G18KT P6SM OVC150=



000
FTUS45 KTFX 282323
TAFHLN
TAF
KHLN 282323Z 2900/2924 13012KT 5SM FU SCT035 BKN060
     FM290200 VRB06KT 5SM FU BKN060
     FM292100 16009G17KT 5SM FU OVC150
     FM292200 21010G18KT P6SM OVC150=



000
FTUS45 KTFX 282323
TAFCTB
TAF
KCTB 282323Z 2900/2924 25018KT 3SM FU SCT040 BKN110
     FM290300 23008KT 5SM HZ SCT040 BKN090
     FM291900 19021G29KT 5SM HZ BKN150=



000
FTUS45 KTFX 282323
TAFLWT
TAF
KLWT 282323Z 2900/2924 04006KT P6SM SCT035
     FM290300 VRB05KT 6SM HZ SCT035 BKN090
     FM291800 19013G19KT P6SM BKN150=



000
FTUS45 KTFX 282323
TAFHVR
TAF
KHVR 282323Z 2900/2924 22008KT 4SM HZ BKN030 OVC045
     FM291500 17012KT 5SM HZ SCT050 BKN100=



000
FTUS45 KTFX 281747
TAFLWT
TAF
KLWT 281747Z 2818/2918 25006KT 5SM FU SCT035 BKN070
      TEMPO 2818/2822 3SM FU BKN035
     FM290200 19006KT 6SM FU SCT040 BKN070=



000
FTUS45 KTFX 281747
TAFBZN
TAF
KBZN 281747Z 2818/2918 VRB05KT P6SM SCT070 BKN120
     FM290200 15006KT P6SM BKN150=



000
FTUS45 KTFX 281747
TAFCTB
TAF
KCTB 281747Z 2818/2918 25018KT 4SM FU SCT040 BKN120
     FM290200 25008KT 5SM FU SCT030 BKN060=



000
FTUS45 KTFX 281747
TAFGTF
TAF
KGTF 281747Z 2818/2918 22013G18KT 3SM FU BKN040
     FM282000 22012G18KT 5SM FU SCT040 BKN090
     FM290200 21006KT 4SM FU SCT030 BKN060=



000
FTUS45 KTFX 281747
TAFHLN
TAF
KHLN 281747Z 2818/2918 VRB05KT 5SM FU BKN025 BKN060
      TEMPO 2818/2822 3SM FU
     FM290200 25006KT 6SM FU SCT025 BKN060=



000
FTUS45 KTFX 281747
TAFHVR
TAF
KHVR 281747Z 2818/2918 23012KT 4SM FU BKN025 BKN040
      TEMPO 2818/2822 2SM FU
     FM282200 25011G18KT 4SM FU SCT050 BKN120
     FM290300 VRB05KT 6SM FU SCT050 BKN100=



000
FTUS45 KTFX 281747
TAFHVR
TAF
KHVR 281747Z 2818/2918 23012KT 4SM FU BKN025 BKN040
      TEMPO 2818/2822 2SM FU
     FM282200 25011G18KT 4SM FU SCT050 BKN120
     FM290300 VRB05KT 6SM FU SCT050 BKN100=



000
FTUS45 KTFX 281747
TAFHLN
TAF
KHLN 281747Z 2818/2918 VRB05KT 5SM FU BKN025 BKN060
      TEMPO 2818/2822 3SM FU
     FM290200 25006KT 6SM FU SCT025 BKN060=



000
FTUS45 KTFX 281747
TAFGTF
TAF
KGTF 281747Z 2818/2918 22013G18KT 3SM FU BKN040
     FM282000 22012G18KT 5SM FU SCT040 BKN090
     FM290200 21006KT 4SM FU SCT030 BKN060=



000
FTUS45 KTFX 281747
TAFLWT
TAF
KLWT 281747Z 2818/2918 25006KT 5SM FU SCT035 BKN070
      TEMPO 2818/2822 3SM FU BKN035
     FM290200 19006KT 6SM FU SCT040 BKN070=



000
FTUS45 KTFX 281747
TAFBZN
TAF
KBZN 281747Z 2818/2918 VRB05KT P6SM SCT070 BKN120
     FM290200 15006KT P6SM BKN150=



000
FTUS45 KTFX 281747
TAFCTB
TAF
KCTB 281747Z 2818/2918 25018KT 4SM FU SCT040 BKN120
     FM290200 25008KT 5SM FU SCT030 BKN060=



000
FTUS45 KTFX 281139
TAFLWT
TAF
KLWT 281139Z 2812/2912 VRB05KT P6SM BKN060
     FM281900 24008KT 6SM FU SCT040 SCT150=



000
FTUS45 KTFX 281139
TAFBZN
TAF
KBZN 281139Z 2812/2912 VRB05KT P6SM SCT070
     FM290200 14007KT P6SM BKN100=



000
FTUS45 KTFX 281139
TAFHVR
TAF
KHVR 281139Z 2812/2912 26008KT 5SM FU BKN050
     FM282000 25011G18KT 4SM FU SCT050 BKN150
     FM290300 VRB05KT 6SM FU SCT050 BKN100=



000
FTUS45 KTFX 281139
TAFCTB
TAF
KCTB 281139Z 2812/2912 26011KT 4SM FU BKN040
     FM281700 24015G22KT 5SM FU SCT040 BKN150
     FM290200 23007KT 5SM FU SCT040 BKN100=



000
FTUS45 KTFX 281139
TAFGTF
TAF
KGTF 281139Z 2812/2912 23011KT 3SM FU BKN030
     FM282000 22011G18KT 5SM FU SCT030 BKN150
     FM290200 21006KT 4SM FU SCT030 BKN100=



000
FTUS45 KTFX 281139
TAFGTF
TAF
KGTF 281139Z 2812/2912 23011KT 3SM FU BKN030
     FM282000 22011G18KT 5SM FU SCT030 BKN150
     FM290200 21006KT 4SM FU SCT030 BKN100=



000
FTUS45 KTFX 281139
TAFBZN
TAF
KBZN 281139Z 2812/2912 VRB05KT P6SM SCT070
     FM290200 14007KT P6SM BKN100=



000
FTUS45 KTFX 281139
TAFHLN
TAF
KHLN 281139Z 2812/2912 VRB05KT 5SM FU BKN050
     FM282000 08008KT 6SM FU SCT040 BKN100=



000
FTUS45 KTFX 281139
TAFLWT
TAF
KLWT 281139Z 2812/2912 VRB05KT P6SM BKN060
     FM281900 24008KT 6SM FU SCT040 SCT150=



000
FTUS45 KTFX 281139
TAFHLN
TAF
KHLN 281139Z 2812/2912 VRB05KT 5SM FU BKN050
     FM282000 08008KT 6SM FU SCT040 BKN100=



000
FTUS45 KTFX 281139
TAFCTB
TAF
KCTB 281139Z 2812/2912 26011KT 4SM FU BKN040
     FM281700 24015G22KT 5SM FU SCT040 BKN150
     FM290200 23007KT 5SM FU SCT040 BKN100=



000
FTUS45 KTFX 281139
TAFHVR
TAF
KHVR 281139Z 2812/2912 26008KT 5SM FU BKN050
     FM282000 25011G18KT 4SM FU SCT050 BKN150
     FM290300 VRB05KT 6SM FU SCT050 BKN100=



000
FTUS45 KTFX 280531
TAFLWT
TAF
KLWT 280531Z 2806/2906 VRB05KT P6SM SKC
     FM281900 24008KT 6SM FU SCT040 SCT100=



000
FTUS45 KTFX 280531
TAFHLN
TAF
KHLN 280531Z 2806/2906 VRB05KT 5SM FU BKN050
     FM281900 08008KT 6SM FU SCT040 SCT100=



000
FTUS45 KTFX 280531
TAFBZN
TAF
KBZN 280531Z 2806/2906 15005KT P6SM SKC
     FM281900 19010KT P6SM SCT100=



000
FTUS45 KTFX 280531
TAFCTB
TAF
KCTB 280531Z 2806/2906 26010KT 4SM FU BKN050
     FM281900 23015KT 5SM FU SCT040 SCT100=



000
FTUS45 KTFX 280531
TAFHVR
TAF
KHVR 280531Z 2806/2906 23008KT P6SM SKC
      TEMPO 2812/2816 5SM FU=



000
FTUS45 KTFX 280531
TAFGTF
TAF
KGTF 280531Z 2806/2906 21008KT 5SM FU BKN045
     FM281900 22011KT 5SM FU SCT040 SCT110=



000
FTUS45 KTFX 280531
TAFBZN
TAF
KBZN 280531Z 2806/2906 15005KT P6SM SKC
     FM281900 19010KT P6SM SCT100=



000
FTUS45 KTFX 280531
TAFGTF
TAF
KGTF 280531Z 2806/2906 21008KT 5SM FU BKN045
     FM281900 22011KT 5SM FU SCT040 SCT110=



000
FTUS45 KTFX 280531
TAFHVR
TAF
KHVR 280531Z 2806/2906 23008KT P6SM SKC
      TEMPO 2812/2816 5SM FU=



000
FTUS45 KTFX 280531
TAFCTB
TAF
KCTB 280531Z 2806/2906 26010KT 4SM FU BKN050
     FM281900 23015KT 5SM FU SCT040 SCT100=



000
FTUS45 KTFX 280309 AAA
TAFCTB
TAF AMD
KCTB 280309Z 2803/2824 26010KT 4SM FU BKN050
     FM281900 23015KT 5SM FU SCT040 SCT100=



000
FTUS45 KTFX 280309 AAA
TAFCTB
TAF AMD
KCTB 280309Z 2803/2824 26010KT 4SM FU BKN050
     FM281900 23015KT 5SM FU SCT040 SCT100=



000
FTUS45 KTFX 280210 AAA
TAFGTF
TAF AMD
KGTF 280210Z 2802/2824 22011KT 4SM FU BKN035
      TEMPO 2802/2804 2SM FU
     FM280500 21008KT 6SM FU SKC
     FM281900 22011KT 5SM FU SCT040 SCT110=



000
FTUS45 KTFX 280210 AAA
TAFGTF
TAF AMD
KGTF 280210Z 2802/2824 22011KT 4SM FU BKN035
      TEMPO 2802/2804 2SM FU
     FM280500 21008KT 6SM FU SKC
     FM281900 22011KT 5SM FU SCT040 SCT110=



000
FTUS45 KTFX 280111 AAB
TAFBZN
TAF AMD
KBZN 280111Z 2801/2824 VRB05KT 5SM FU VCTS SCT040 SCT070CB BKN110
      TEMPO 2801/2802 VRB15G30KT 2SM -TSRA FU BKN040 BKN060CB
     FM280300 15005KT P6SM SKC
     FM281900 19008KT P6SM SCT100=



000
FTUS45 KTFX 280013 AAA
TAFBZN
TAF AMD
KBZN 280013Z 2800/2824 VRB05KT 5SM FU VCTS SCT040 SCT070CB BKN110
      TEMPO 2800/2801 VRB15G30KT 2SM -TSRA FU BKN040 BKN060CB
     FM280300 15005KT P6SM SKC
     FM281900 19008KT P6SM SCT100=



000
FTUS45 KTFX 280013 AAA
TAFBZN
TAF AMD
KBZN 280013Z 2800/2824 VRB05KT 5SM FU VCTS SCT040 SCT070CB BKN110
      TEMPO 2800/2801 VRB15G30KT 2SM -TSRA FU BKN040 BKN060CB
     FM280300 15005KT P6SM SKC
     FM281900 19008KT P6SM SCT100=



000
FTUS45 KTFX 272341
TAFBZN
TAF
KBZN 272341Z 2800/2824 VRB05KT 5SM FU VCTS SCT040 SCT070CB BKN110
      TEMPO 2800/2801 VRB15G30KT 6SM -TSRA FU BKN040 BKN060CB
     FM280300 15005KT P6SM SKC
     FM281900 19008KT P6SM SCT100=



000
FTUS45 KTFX 272341
TAFLWT
TAF
KLWT 272341Z 2800/2824 28010KT 5SM FU BKN035 BKN090
     FM280300 VRB05KT P6SM SKC
     FM281900 24008KT 6SM FU SCT040 SCT100=



000
FTUS45 KTFX 272341
TAFGTF
TAF
KGTF 272341Z 2800/2824 24011KT 5SM FU BKN040 BKN130
     FM280200 21008KT 6SM FU SKC
     FM281900 22011KT 5SM FU SCT040 SCT110=



000
FTUS45 KTFX 272341
TAFGTF
TAF
KGTF 272341Z 2800/2824 24011KT 5SM FU BKN040 BKN130
     FM280200 21008KT 6SM FU SKC
     FM281900 22011KT 5SM FU SCT040 SCT110=



000
FTUS45 KTFX 272341
TAFHVR
TAF
KHVR 272341Z 2800/2824 22010KT 6SM FU SCT040 SCT110
      TEMPO 2800/2802 29011G21KT 5SM FU
     FM280300 23008KT P6SM SKC
      TEMPO 2812/2816 5SM FU=



000
FTUS45 KTFX 272341
TAFCTB
TAF
KCTB 272341Z 2800/2824 28011G20KT 4SM FU BKN040 BKN130
      TEMPO 2800/2802 2SM FU BKN030
     FM280300 26010KT 6SM FU SKC
     FM281900 23015KT 5SM FU SCT040 SCT100=



000
FTUS45 KTFX 272341
TAFCTB
TAF
KCTB 272341Z 2800/2824 28011G20KT 4SM FU BKN040 BKN130
      TEMPO 2800/2802 2SM FU BKN030
     FM280300 26010KT 6SM FU SKC
     FM281900 23015KT 5SM FU SCT040 SCT100=



000
FTUS45 KTFX 272341
TAFHLN
TAF
KHLN 272341Z 2800/2824 08008KT 6SM FU VCTS SCT035 SCT080CB BKN130
      TEMPO 2800/2801 VRB15G30KT 4SM -TSRA FU BKN035 BKN070CB
     FM280200 VRB05KT 6SM FU SKC
     FM281900 08008KT 6SM FU SCT040 SCT100=



000
FTUS45 KTFX 272341
TAFHLN
TAF
KHLN 272341Z 2800/2824 08008KT 6SM FU VCTS SCT035 SCT080CB BKN130
      TEMPO 2800/2801 VRB15G30KT 4SM -TSRA FU BKN035 BKN070CB
     FM280200 VRB05KT 6SM FU SKC
     FM281900 08008KT 6SM FU SCT040 SCT100=



000
FTUS45 KTFX 272341
TAFHVR
TAF
KHVR 272341Z 2800/2824 22010KT 6SM FU SCT040 SCT110
      TEMPO 2800/2802 29011G21KT 5SM FU
     FM280300 23008KT P6SM SKC
      TEMPO 2812/2816 5SM FU=



000
FTUS45 KTFX 272341
TAFLWT
TAF
KLWT 272341Z 2800/2824 28010KT 5SM FU BKN035 BKN090
     FM280300 VRB05KT P6SM SKC
     FM281900 24008KT 6SM FU SCT040 SCT100=



000
FTUS45 KTFX 272341
TAFBZN
TAF
KBZN 272341Z 2800/2824 VRB05KT 5SM FU VCTS SCT040 SCT070CB BKN110
      TEMPO 2800/2801 VRB15G30KT 6SM -TSRA FU BKN040 BKN060CB
     FM280300 15005KT P6SM SKC
     FM281900 19008KT P6SM SCT100=



000
FTUS45 KTFX 272231 AAA
TAFBZN
TAF AMD
KBZN 272231Z 2723/2818 VRB05KT 5SM FU VCTS SCT040 SCT070CB BKN120
      TEMPO 2723/2801 VRB15G30KT 6SM -TSRA FU BKN070CB
     FM280300 15004KT P6SM SCT120=



000
FTUS45 KTFX 272229 AAB
TAFHVR
TAF AMD
KHVR 272229Z 2722/2818 23011KT 6SM FU SCT100 BKN150
      TEMPO 2723/2802 29011G21KT
     FM280300 25008KT P6SM SCT120=



000
FTUS45 KTFX 272229 AAB
TAFHVR
TAF AMD
KHVR 272229Z 2722/2818 23011KT 6SM FU SCT100 BKN150
      TEMPO 2723/2802 29011G21KT
     FM280300 25008KT P6SM SCT120=



000
FTUS45 KTFX 272225 AAA
TAFCTB
TAF AMD
KCTB 272225Z 2722/2818 28013G20KT 4SM FU SCT040 BKN090
      TEMPO 2722/2801 BKN030
     FM280300 26011KT 6SM FU FEW050 SCT120=



000
FTUS45 KTFX 272142 AAB
TAFGTF
TAF AMD
KGTF 272142Z 2722/2818 24015KT 5SM FU BKN040 BKN090
      TEMPO 2722/2801 2SM FU BKN025
     FM280300 23008KT 6SM FU SCT100 BKN150=



000
FTUS45 KTFX 272007 AAA
TAFLWT
TAF AMD
KLWT 272007Z 2720/2818 27010KT 5SM FU SCT040 SCT090 BKN150
     FM272200 31010KT 6SM FU VCTS SCT080CB BKN120
     FM280300 23009KT P6SM SCT100 BKN150=



000
FTUS45 KTFX 272007 AAA
TAFHVR
TAF AMD
KHVR 272007Z 2720/2818 23014KT 6SM FU BKN120
      TEMPO 2720/2722 29014KT
     FM272200 29012G18KT 6SM FU SCT100 BKN150
     FM280300 25008KT P6SM SCT120=



000
FTUS45 KTFX 272002 AAA
TAFGTF
TAF AMD
KGTF 272002Z 2720/2818 24015KT 5SM FU BKN040 BKN090
     FM280300 23008KT 6SM FU SCT100 BKN150=



000
FTUS45 KTFX 271738
TAFLWT
TAF
KLWT 271738Z 2718/2818 VRB05KT P6SM SCT090 BKN150
     FM272200 31010KT P6SM VCTS SCT080CB BKN120
     FM280300 23009KT P6SM SCT100 BKN150=



000
FTUS45 KTFX 271738
TAFHVR
TAF
KHVR 271738Z 2718/2818 28007KT P6SM BKN120
     FM272100 28012G18KT P6SM SCT100 BKN150
     FM280300 25008KT P6SM SCT120=



000
FTUS45 KTFX 271738
TAFBZN
TAF
KBZN 271738Z 2718/2818 VRB05KT P6SM VCTS SCT070CB BKN120
      TEMPO 2719/2723 -TSRA BKN070CB
     FM280300 15004KT P6SM SCT120=



000
FTUS45 KTFX 271738
TAFHLN
TAF
KHLN 271738Z 2718/2818 VRB05KT 6SM FU VCSH SCT100 BKN150
     FM272200 28010KT 6SM FU SCT080 BKN150
     FM280600 VRB05KT P6SM SCT120=



000
FTUS45 KTFX 271738
TAFHVR
TAF
KHVR 271738Z 2718/2818 28007KT P6SM BKN120
     FM272100 28012G18KT P6SM SCT100 BKN150
     FM280300 25008KT P6SM SCT120=



000
FTUS45 KTFX 271738
TAFLWT
TAF
KLWT 271738Z 2718/2818 VRB05KT P6SM SCT090 BKN150
     FM272200 31010KT P6SM VCTS SCT080CB BKN120
     FM280300 23009KT P6SM SCT100 BKN150=



000
FTUS45 KTFX 271738
TAFBZN
TAF
KBZN 271738Z 2718/2818 VRB05KT P6SM VCTS SCT070CB BKN120
      TEMPO 2719/2723 -TSRA BKN070CB
     FM280300 15004KT P6SM SCT120=



000
FTUS45 KTFX 271738
TAFGTF
TAF
KGTF 271738Z 2718/2818 22010KT 6SM FU BKN040 BKN090
     FM272100 22012KT 6SM FU SCT070 BKN120
     FM280300 23008KT 6SM FU SCT100 BKN150=



000
FTUS45 KTFX 271738
TAFHLN
TAF
KHLN 271738Z 2718/2818 VRB05KT 6SM FU VCSH SCT100 BKN150
     FM272200 28010KT 6SM FU SCT080 BKN150
     FM280600 VRB05KT P6SM SCT120=



000
FTUS45 KTFX 271738
TAFGTF
TAF
KGTF 271738Z 2718/2818 22010KT 6SM FU BKN040 BKN090
     FM272100 22012KT 6SM FU SCT070 BKN120
     FM280300 23008KT 6SM FU SCT100 BKN150=



000
FTUS45 KTFX 271738
TAFCTB
TAF
KCTB 271738Z 2718/2818 25007KT 4SM FU BKN020 BKN045
      TEMPO 2718/2722 2SM FU
     FM272200 28013G20KT 5SM FU FEW050 BKN090
     FM280300 26011KT 6SM FU FEW050 SCT120=



000
FTUS45 KTFX 271738
TAFCTB
TAF
KCTB 271738Z 2718/2818 25007KT 4SM FU BKN020 BKN045
      TEMPO 2718/2722 2SM FU
     FM272200 28013G20KT 5SM FU FEW050 BKN090
     FM280300 26011KT 6SM FU FEW050 SCT120=



000
FTUS45 KTFX 271137
TAFHVR
TAF
KHVR 271137Z 2712/2812 VRB05KT 6SM FU BKN150
     FM272000 28010G18KT 6SM FU SCT100 BKN150
     FM280200 23009KT P6SM BKN110=



000
FTUS45 KTFX 271137
TAFGTF
TAF
KGTF 271137Z 2712/2812 22010KT 6SM FU SCT100 BKN150
     FM272100 25010G20KT 6SM FU VCTS SCT080CB BKN150
     FM280300 22010KT 6SM FU SCT100 BKN150=



000
FTUS45 KTFX 271137
TAFCTB
TAF
KCTB 271137Z 2712/2812 27010KT 4SM FU BKN050
     FM271700 28013G20KT 6SM FU FEW050 SCT100 BKN150
     FM280300 26011KT 6SM FU FEW050 SCT100=



000
FTUS45 KTFX 271137
TAFHLN
TAF
KHLN 271137Z 2712/2812 VRB05KT 6SM FU SCT100 BKN150
     FM272100 31010KT 6SM FU VCTS SCT080CB BKN150
     FM280600 VRB05KT P6SM SCT100=



000
FTUS45 KTFX 271137
TAFLWT
TAF
KLWT 271137Z 2712/2812 13007KT P6SM SCT090 BKN150
     FM272000 31010KT P6SM VCTS SCT080CB BKN110
     FM280300 23009KT P6SM SCT100 BKN150=



000
FTUS45 KTFX 271137
TAFBZN
TAF
KBZN 271137Z 2712/2812 VRB05KT P6SM SCT100 BKN150
     FM272000 VRB05KT P6SM VCTS SCT080CB BKN120
     FM280300 VRB04KT P6SM SCT100=



000
FTUS45 KTFX 271137
TAFBZN
TAF
KBZN 271137Z 2712/2812 VRB05KT P6SM SCT100 BKN150
     FM272000 VRB05KT P6SM VCTS SCT080CB BKN120
     FM280300 VRB04KT P6SM SCT100=



000
FTUS45 KTFX 271137
TAFGTF
TAF
KGTF 271137Z 2712/2812 22010KT 6SM FU SCT100 BKN150
     FM272100 25010G20KT 6SM FU VCTS SCT080CB BKN150
     FM280300 22010KT 6SM FU SCT100 BKN150=



000
FTUS45 KTFX 271137
TAFCTB
TAF
KCTB 271137Z 2712/2812 27010KT 4SM FU BKN050
     FM271700 28013G20KT 6SM FU FEW050 SCT100 BKN150
     FM280300 26011KT 6SM FU FEW050 SCT100=



000
FTUS45 KTFX 271137
TAFLWT
TAF
KLWT 271137Z 2712/2812 13007KT P6SM SCT090 BKN150
     FM272000 31010KT P6SM VCTS SCT080CB BKN110
     FM280300 23009KT P6SM SCT100 BKN150=



000
FTUS45 KTFX 271137
TAFHLN
TAF
KHLN 271137Z 2712/2812 VRB05KT 6SM FU SCT100 BKN150
     FM272100 31010KT 6SM FU VCTS SCT080CB BKN150
     FM280600 VRB05KT P6SM SCT100=



000
FTUS45 KTFX 271137
TAFHVR
TAF
KHVR 271137Z 2712/2812 VRB05KT 6SM FU BKN150
     FM272000 28010G18KT 6SM FU SCT100 BKN150
     FM280200 23009KT P6SM BKN110=



000
FTUS45 KTFX 270520
TAFHLN
TAF
KHLN 270520Z 2706/2806 VRB05KT 6SM FU FEW040 BKN150
     FM271200 VRB05KT 5SM FU SCT040 SCT100 BKN150
     FM271700 31010KT 6SM FU VCTS SCT035 SCT090CB BKN150=



000
FTUS45 KTFX 270520
TAFCTB
TAF
KCTB 270520Z 2706/2806 VRB05KT 4SM FU BKN040
     FM271700 28010G20KT 6SM FU SCT040 SCT100 BKN140
     FM280300 28010KT 6SM FU SCT100 BKN150=



000
FTUS45 KTFX 270520
TAFBZN
TAF
KBZN 270520Z 2706/2806 VRB05KT P6SM SCT100 BKN150
     FM271800 VRB05KT P6SM VCTS SCT080CB BKN120=



000
FTUS45 KTFX 270520
TAFGTF
TAF
KGTF 270520Z 2706/2806 VRB05KT 6SM FU SCT150
     FM271200 21010KT 5SM FU SCT040 SCT100 BKN150
     FM271900 25010G20KT 6SM FU VCTS SCT035 SCT090CB BKN150
     FM280300 28010KT 6SM FU SCT100 BKN150=



000
FTUS45 KTFX 270520
TAFLWT
TAF
KLWT 270520Z 2706/2806 12005KT 6SM FU SCT040 SCT090 BKN150
     FM271900 31010KT 6SM FU VCTS SCT035 SCT080CB BKN130=



000
FTUS45 KTFX 270520
TAFHVR
TAF
KHVR 270520Z 2706/2806 09007KT 6SM FU SKC
     FM271300 VRB05KT 5SM FU SCT040
     FM272000 27010KT 6SM FU SCT040 SCT090 BKN150=



000
FTUS45 KTFX 270520
TAFBZN
TAF
KBZN 270520Z 2706/2806 VRB05KT P6SM SCT100 BKN150
     FM271800 VRB05KT P6SM VCTS SCT080CB BKN120=



000
FTUS45 KTFX 270520
TAFHLN
TAF
KHLN 270520Z 2706/2806 VRB05KT 6SM FU FEW040 BKN150
     FM271200 VRB05KT 5SM FU SCT040 SCT100 BKN150
     FM271700 31010KT 6SM FU VCTS SCT035 SCT090CB BKN150=



000
FTUS45 KTFX 270520
TAFGTF
TAF
KGTF 270520Z 2706/2806 VRB05KT 6SM FU SCT150
     FM271200 21010KT 5SM FU SCT040 SCT100 BKN150
     FM271900 25010G20KT 6SM FU VCTS SCT035 SCT090CB BKN150
     FM280300 28010KT 6SM FU SCT100 BKN150=



000
FTUS45 KTFX 270520
TAFHVR
TAF
KHVR 270520Z 2706/2806 09007KT 6SM FU SKC
     FM271300 VRB05KT 5SM FU SCT040
     FM272000 27010KT 6SM FU SCT040 SCT090 BKN150=



000
FTUS45 KTFX 270520
TAFCTB
TAF
KCTB 270520Z 2706/2806 VRB05KT 4SM FU BKN040
     FM271700 28010G20KT 6SM FU SCT040 SCT100 BKN140
     FM280300 28010KT 6SM FU SCT100 BKN150=



000
FTUS45 KTFX 270520
TAFLWT
TAF
KLWT 270520Z 2706/2806 12005KT 6SM FU SCT040 SCT090 BKN150
     FM271900 31010KT 6SM FU VCTS SCT035 SCT080CB BKN130=



000
FTUS45 KTFX 270258 AAA
TAFHVR
TAF AMD
KHVR 270258Z 2703/2724 09007KT 6SM FU SKC
     FM271300 VRB05KT 5SM FU SCT040
     FM272000 27011KT 6SM FU SCT040 SCT090 BKN150=



000
FTUS45 KTFX 270258 AAA
TAFHVR
TAF AMD
KHVR 270258Z 2703/2724 09007KT 6SM FU SKC
     FM271300 VRB05KT 5SM FU SCT040
     FM272000 27011KT 6SM FU SCT040 SCT090 BKN150=



000
FTUS45 KTFX 262341
TAFLWT
TAF
KLWT 262341Z 2700/2724 11006KT 6SM FU SCT040 SCT090 BKN150
     FM271900 31010KT 6SM FU VCTS SCT035 SCT080CB BKN130=



000
FTUS45 KTFX 262341
TAFLWT
TAF
KLWT 262341Z 2700/2724 11006KT 6SM FU SCT040 SCT090 BKN150
     FM271900 31010KT 6SM FU VCTS SCT035 SCT080CB BKN130=



000
FTUS45 KTFX 262341
TAFGTF
TAF
KGTF 262341Z 2700/2724 11008KT 6SM FU SCT150
     FM271200 21008KT 5SM FU SCT040 SCT100 BKN150
     FM271900 25010G20KT 6SM FU VCTS SCT035 SCT090CB BKN130=



000
FTUS45 KTFX 262341
TAFHLN
TAF
KHLN 262341Z 2700/2724 VRB05KT 6SM FU FEW040 SCT100 BKN150
     FM271200 VRB05KT 5SM FU SCT040 SCT100 BKN150
     FM271700 31010KT 6SM FU VCTS SCT035 SCT090CB BKN130=



000
FTUS45 KTFX 262341
TAFCTB
TAF
KCTB 262341Z 2700/2724 10010KT 5SM FU SCT045
     FM270600 VRB06KT 4SM FU BKN040
     FM271700 28013G23KT 6SM FU SCT040 SCT100 BKN180=



000
FTUS45 KTFX 262341
TAFHVR
TAF
KHVR 262341Z 2700/2724 08010KT 5SM FU SCT040
     FM270600 09007KT 6SM FU SKC
     FM271300 VRB05KT 5SM FU SCT040
     FM272000 27011KT 6SM FU SCT040 SCT090 BKN150=



000
FTUS45 KTFX 262341
TAFBZN
TAF
KBZN 262341Z 2700/2724 VRB05KT P6SM SCT090 BKN140
     FM271800 VRB06KT P6SM VCTS SCT080CB BKN120=



000
FTUS45 KTFX 262341
TAFHLN
TAF
KHLN 262341Z 2700/2724 VRB05KT 6SM FU FEW040 SCT100 BKN150
     FM271200 VRB05KT 5SM FU SCT040 SCT100 BKN150
     FM271700 31010KT 6SM FU VCTS SCT035 SCT090CB BKN130=



000
FTUS45 KTFX 262341
TAFGTF
TAF
KGTF 262341Z 2700/2724 11008KT 6SM FU SCT150
     FM271200 21008KT 5SM FU SCT040 SCT100 BKN150
     FM271900 25010G20KT 6SM FU VCTS SCT035 SCT090CB BKN130=



000
FTUS45 KTFX 262341
TAFBZN
TAF
KBZN 262341Z 2700/2724 VRB05KT P6SM SCT090 BKN140
     FM271800 VRB06KT P6SM VCTS SCT080CB BKN120=



000
FTUS45 KTFX 262341
TAFCTB
TAF
KCTB 262341Z 2700/2724 10010KT 5SM FU SCT045
     FM270600 VRB06KT 4SM FU BKN040
     FM271700 28013G23KT 6SM FU SCT040 SCT100 BKN180=



000
FTUS45 KTFX 262341
TAFHVR
TAF
KHVR 262341Z 2700/2724 08010KT 5SM FU SCT040
     FM270600 09007KT 6SM FU SKC
     FM271300 VRB05KT 5SM FU SCT040
     FM272000 27011KT 6SM FU SCT040 SCT090 BKN150=



000
FTUS45 KTFX 262038 AAA
TAFHLN
TAF AMD
KHLN 262038Z 2621/2718 05005KT 6SM FU FEW040 SCT090 SCT150
      TEMPO 2621/2624 4SM FU BKN040
     FM270300 25005KT 6SM FU BKN150=



000
FTUS45 KTFX 261735
TAFHVR
TAF
KHVR 261735Z 2618/2718 09007KT 6SM FU SKC
      TEMPO 2618/2622 3SM FU
     FM270300 08006KT 5SM FU SKC=



000
FTUS45 KTFX 261735
TAFHVR
TAF
KHVR 261735Z 2618/2718 09007KT 6SM FU SKC
      TEMPO 2618/2622 3SM FU
     FM270300 08006KT 5SM FU SKC=



000
FTUS45 KTFX 261735
TAFGTF
TAF
KGTF 261735Z 2618/2718 25006KT 5SM FU SKC
     FM270300 06008KT 6SM FU SCT100 BKN150=



000
FTUS45 KTFX 261735
TAFBZN
TAF
KBZN 261735Z 2618/2718 VRB05KT P6SM FEW150
     FM262000 VRB05KT P6SM SCT080 BKN150
     FM270300 15005KT P6SM BKN120=



000
FTUS45 KTFX 261735
TAFCTB
TAF
KCTB 261735Z 2618/2718 VRB05KT 5SM FU SKC=



000
FTUS45 KTFX 261735
TAFLWT
TAF
KLWT 261735Z 2618/2718 VRB05KT 6SM FU SKC
     FM270300 11006KT 6SM FU FEW150=



000
FTUS45 KTFX 261735
TAFHLN
TAF
KHLN 261735Z 2618/2718 VRB05KT 6SM FU SKC
     FM262200 05005KT 6SM FU FEW090 SCT150
     FM270300 25005KT 6SM FU BKN150=



000
FTUS45 KTFX 261735
TAFBZN
TAF
KBZN 261735Z 2618/2718 VRB05KT P6SM FEW150
     FM262000 VRB05KT P6SM SCT080 BKN150
     FM270300 15005KT P6SM BKN120=



000
FTUS45 KTFX 261735
TAFHLN
TAF
KHLN 261735Z 2618/2718 VRB05KT 6SM FU SKC
     FM262200 05005KT 6SM FU FEW090 SCT150
     FM270300 25005KT 6SM FU BKN150=



000
FTUS45 KTFX 261735
TAFLWT
TAF
KLWT 261735Z 2618/2718 VRB05KT 6SM FU SKC
     FM270300 11006KT 6SM FU FEW150=



000
FTUS45 KTFX 261735
TAFCTB
TAF
KCTB 261735Z 2618/2718 VRB05KT 5SM FU SKC=



000
FTUS45 KTFX 261735
TAFGTF
TAF
KGTF 261735Z 2618/2718 25006KT 5SM FU SKC
     FM270300 06008KT 6SM FU SCT100 BKN150=



    US Dept of Commerce
    National Oceanic and Atmospheric Administration
    National Weather Service
    1325 East West Highway
    Silver Spring, MD 20910
    Page Author: NWS Internet Services Team
Disclaimer
Information Quality
Credits
Glossary
Privacy Policy
Freedom of Information Act (FOIA)
About Us
Career Opportunities